sensor_id;sensor_type;location;lat;lon;timestamp;P1;durP1;ratioP1;P2;durP2;ratioP2
59418;SDS011;45224;50.904;6.038;2024-02-28T00:00:00;56.25;;;22.15;;
59418;SDS011;45224;50.904;6.038;2024-02-28T00:01:31;59.92;;;22.08;;
59418;SDS011;45224;50.904;6.038;2024-02-28T00:03:02;59.22;;;21.52;;
59418;SDS011;45224;50.904;6.038;2024-02-28T00:04:32;63.38;;;23.20;;
59418;SDS011;45224;50.904;6.038;2024-02-28T00:06:03;67.18;;;24.88;;
59418;SDS011;45224;50.904;6.038;2024-02-28T00:07:33;69.00;;;24.25;;
59418;SDS011;45224;50.904;6.038;2024-02-28T00:09:04;62.70;;;23.90;;
59418;SDS011;45224;50.904;6.038;2024-02-28T00:10:35;62.25;;;23.73;;
59418;SDS011;45224;50.904;6.038;2024-02-28T00:12:05;64.43;;;23.65;;
59418;SDS011;45224;50.904;6.038;2024-02-28T00:13:36;65.20;;;23.70;;
59418;SDS011;45224;50.904;6.038;2024-02-28T00:15:06;66.88;;;24.33;;
59418;SDS011;45224;50.904;6.038;2024-02-28T00:16:41;61.25;;;22.55;;
59418;SDS011;45224;50.904;6.038;2024-02-28T00:18:12;56.08;;;21.38;;
59418;SDS011;45224;50.904;6.038;2024-02-28T00:19:42;61.13;;;22.80;;
59418;SDS011;45224;50.904;6.038;2024-02-28T00:21:13;61.05;;;24.15;;
59418;SDS011;45224;50.904;6.038;2024-02-28T00:22:43;60.60;;;21.30;;
59418;SDS011;45224;50.904;6.038;2024-02-28T00:24:14;62.17;;;21.17;;
59418;SDS011;45224;50.904;6.038;2024-02-28T00:25:44;67.45;;;24.20;;
59418;SDS011;45224;50.904;6.038;2024-02-28T00:27:15;62.85;;;22.55;;
59418;SDS011;45224;50.904;6.038;2024-02-28T00:28:45;67.22;;;24.70;;
59418;SDS011;45224;50.904;6.038;2024-02-28T00:30:16;67.68;;;23.10;;
59418;SDS011;45224;50.904;6.038;2024-02-28T00:31:47;64.18;;;23.73;;
59418;SDS011;45224;50.904;6.038;2024-02-28T00:33:18;59.42;;;21.17;;
59418;SDS011;45224;50.904;6.038;2024-02-28T00:34:48;59.90;;;21.98;;
59418;SDS011;45224;50.904;6.038;2024-02-28T00:36:19;63.03;;;23.25;;
59418;SDS011;45224;50.904;6.038;2024-02-28T00:37:49;65.30;;;23.95;;
59418;SDS011;45224;50.904;6.038;2024-02-28T00:39:20;65.68;;;23.20;;
59418;SDS011;45224;50.904;6.038;2024-02-28T00:40:50;66.40;;;24.85;;
59418;SDS011;45224;50.904;6.038;2024-02-28T00:42:21;64.07;;;23.55;;
59418;SDS011;45224;50.904;6.038;2024-02-28T00:43:51;60.72;;;22.58;;
59418;SDS011;45224;50.904;6.038;2024-02-28T00:45:22;60.80;;;22.48;;
59418;SDS011;45224;50.904;6.038;2024-02-28T00:46:52;67.60;;;24.38;;
59418;SDS011;45224;50.904;6.038;2024-02-28T00:48:23;64.22;;;24.00;;
59418;SDS011;45224;50.904;6.038;2024-02-28T00:49:53;60.92;;;22.55;;
59418;SDS011;45224;50.904;6.038;2024-02-28T00:51:24;71.85;;;23.83;;
59418;SDS011;45224;50.904;6.038;2024-02-28T00:52:54;60.88;;;21.83;;
59418;SDS011;45224;50.904;6.038;2024-02-28T00:54:25;61.00;;;24.17;;
59418;SDS011;45224;50.904;6.038;2024-02-28T00:55:56;59.65;;;21.13;;
59418;SDS011;45224;50.904;6.038;2024-02-28T00:57:26;61.63;;;22.70;;
59418;SDS011;45224;50.904;6.038;2024-02-28T00:58:57;60.10;;;21.85;;
59418;SDS011;45224;50.904;6.038;2024-02-28T01:00:27;67.00;;;22.70;;
59418;SDS011;45224;50.904;6.038;2024-02-28T01:01:57;63.15;;;22.30;;
59418;SDS011;45224;50.904;6.038;2024-02-28T01:03:28;60.67;;;22.95;;
59418;SDS011;45224;50.904;6.038;2024-02-28T01:04:58;63.92;;;22.10;;
59418;SDS011;45224;50.904;6.038;2024-02-28T01:06:29;61.17;;;22.35;;
59418;SDS011;45224;50.904;6.038;2024-02-28T01:07:59;68.15;;;22.70;;
59418;SDS011;45224;50.904;6.038;2024-02-28T01:09:30;68.57;;;23.85;;
59418;SDS011;45224;50.904;6.038;2024-02-28T01:11:00;60.30;;;22.83;;
59418;SDS011;45224;50.904;6.038;2024-02-28T01:12:30;68.95;;;24.38;;
59418;SDS011;45224;50.904;6.038;2024-02-28T01:14:01;67.20;;;23.35;;
59418;SDS011;45224;50.904;6.038;2024-02-28T01:15:31;71.43;;;24.88;;
59418;SDS011;45224;50.904;6.038;2024-02-28T01:17:02;63.85;;;23.48;;
59418;SDS011;45224;50.904;6.038;2024-02-28T01:18:32;66.05;;;23.08;;
59418;SDS011;45224;50.904;6.038;2024-02-28T01:20:03;70.30;;;24.05;;
59418;SDS011;45224;50.904;6.038;2024-02-28T01:21:34;69.47;;;23.23;;
59418;SDS011;45224;50.904;6.038;2024-02-28T01:23:04;63.03;;;23.92;;
59418;SDS011;45224;50.904;6.038;2024-02-28T01:24:35;67.75;;;23.05;;
59418;SDS011;45224;50.904;6.038;2024-02-28T01:26:06;64.82;;;23.95;;
59418;SDS011;45224;50.904;6.038;2024-02-28T01:27:37;69.72;;;23.35;;
59418;SDS011;45224;50.904;6.038;2024-02-28T01:29:07;71.15;;;24.67;;
59418;SDS011;45224;50.904;6.038;2024-02-28T01:30:38;69.07;;;24.00;;
59418;SDS011;45224;50.904;6.038;2024-02-28T01:32:08;68.63;;;24.35;;
59418;SDS011;45224;50.904;6.038;2024-02-28T01:33:38;73.43;;;25.33;;
59418;SDS011;45224;50.904;6.038;2024-02-28T01:35:10;65.53;;;25.08;;
59418;SDS011;45224;50.904;6.038;2024-02-28T01:36:40;65.50;;;25.10;;
59418;SDS011;45224;50.904;6.038;2024-02-28T01:38:10;65.93;;;24.48;;
59418;SDS011;45224;50.904;6.038;2024-02-28T01:39:41;70.82;;;23.90;;
59418;SDS011;45224;50.904;6.038;2024-02-28T01:41:12;64.53;;;23.40;;
59418;SDS011;45224;50.904;6.038;2024-02-28T01:42:42;67.60;;;25.05;;
59418;SDS011;45224;50.904;6.038;2024-02-28T01:44:12;69.63;;;24.92;;
59418;SDS011;45224;50.904;6.038;2024-02-28T01:45:43;69.03;;;23.08;;
59418;SDS011;45224;50.904;6.038;2024-02-28T01:47:14;72.20;;;24.10;;
59418;SDS011;45224;50.904;6.038;2024-02-28T01:48:46;72.30;;;25.33;;
59418;SDS011;45224;50.904;6.038;2024-02-28T01:50:16;68.32;;;22.73;;
59418;SDS011;45224;50.904;6.038;2024-02-28T01:51:47;70.05;;;23.83;;
59418;SDS011;45224;50.904;6.038;2024-02-28T01:53:18;79.43;;;26.70;;
59418;SDS011;45224;50.904;6.038;2024-02-28T01:54:48;67.13;;;23.50;;
59418;SDS011;45224;50.904;6.038;2024-02-28T01:56:19;73.18;;;25.00;;
59418;SDS011;45224;50.904;6.038;2024-02-28T01:57:51;66.20;;;23.50;;
59418;SDS011;45224;50.904;6.038;2024-02-28T01:59:22;77.50;;;24.52;;
59418;SDS011;45224;50.904;6.038;2024-02-28T02:00:56;67.60;;;24.42;;
59418;SDS011;45224;50.904;6.038;2024-02-28T02:02:27;68.25;;;24.05;;
59418;SDS011;45224;50.904;6.038;2024-02-28T02:03:57;71.68;;;25.00;;
59418;SDS011;45224;50.904;6.038;2024-02-28T02:05:28;74.10;;;24.42;;
59418;SDS011;45224;50.904;6.038;2024-02-28T02:06:59;74.25;;;25.42;;
59418;SDS011;45224;50.904;6.038;2024-02-28T02:08:30;75.10;;;25.10;;
59418;SDS011;45224;50.904;6.038;2024-02-28T02:10:01;65.18;;;23.98;;
59418;SDS011;45224;50.904;6.038;2024-02-28T02:11:32;66.15;;;23.48;;
59418;SDS011;45224;50.904;6.038;2024-02-28T02:13:06;65.60;;;23.17;;
59418;SDS011;45224;50.904;6.038;2024-02-28T02:14:37;69.85;;;24.13;;
59418;SDS011;45224;50.904;6.038;2024-02-28T02:16:07;67.57;;;23.42;;
59418;SDS011;45224;50.904;6.038;2024-02-28T02:17:38;62.10;;;22.10;;
59418;SDS011;45224;50.904;6.038;2024-02-28T02:19:08;66.82;;;23.58;;
59418;SDS011;45224;50.904;6.038;2024-02-28T02:20:41;59.90;;;22.30;;
59418;SDS011;45224;50.904;6.038;2024-02-28T02:22:14;61.88;;;21.92;;
59418;SDS011;45224;50.904;6.038;2024-02-28T02:23:46;68.15;;;23.67;;
59418;SDS011;45224;50.904;6.038;2024-02-28T02:25:17;67.63;;;22.88;;
59418;SDS011;45224;50.904;6.038;2024-02-28T02:26:47;65.80;;;23.52;;
59418;SDS011;45224;50.904;6.038;2024-02-28T02:28:20;68.63;;;24.20;;
59418;SDS011;45224;50.904;6.038;2024-02-28T02:29:51;71.63;;;23.58;;
59418;SDS011;45224;50.904;6.038;2024-02-28T02:31:21;73.35;;;24.65;;
59418;SDS011;45224;50.904;6.038;2024-02-28T02:32:51;71.85;;;24.52;;
59418;SDS011;45224;50.904;6.038;2024-02-28T02:34:22;75.25;;;25.60;;
59418;SDS011;45224;50.904;6.038;2024-02-28T02:35:55;72.40;;;25.23;;
59418;SDS011;45224;50.904;6.038;2024-02-28T02:37:26;66.47;;;23.27;;
59418;SDS011;45224;50.904;6.038;2024-02-28T02:38:56;73.45;;;22.40;;
59418;SDS011;45224;50.904;6.038;2024-02-28T02:40:27;68.03;;;22.58;;
59418;SDS011;45224;50.904;6.038;2024-02-28T02:41:58;70.80;;;24.73;;
59418;SDS011;45224;50.904;6.038;2024-02-28T02:43:28;70.40;;;24.40;;
59418;SDS011;45224;50.904;6.038;2024-02-28T02:44:59;70.40;;;25.35;;
59418;SDS011;45224;50.904;6.038;2024-02-28T02:46:29;66.30;;;23.95;;
59418;SDS011;45224;50.904;6.038;2024-02-28T02:48:00;74.30;;;24.75;;
59418;SDS011;45224;50.904;6.038;2024-02-28T02:49:30;64.93;;;23.02;;
59418;SDS011;45224;50.904;6.038;2024-02-28T02:51:00;66.93;;;23.60;;
59418;SDS011;45224;50.904;6.038;2024-02-28T02:52:31;67.90;;;22.48;;
59418;SDS011;45224;50.904;6.038;2024-02-28T02:54:01;64.13;;;21.77;;
59418;SDS011;45224;50.904;6.038;2024-02-28T02:55:32;69.88;;;22.25;;
59418;SDS011;45224;50.904;6.038;2024-02-28T02:57:02;66.93;;;22.85;;
59418;SDS011;45224;50.904;6.038;2024-02-28T02:58:33;60.30;;;21.45;;
59418;SDS011;45224;50.904;6.038;2024-02-28T03:00:04;68.97;;;22.88;;
59418;SDS011;45224;50.904;6.038;2024-02-28T03:01:38;69.75;;;23.13;;
59418;SDS011;45224;50.904;6.038;2024-02-28T03:03:08;65.55;;;22.92;;
59418;SDS011;45224;50.904;6.038;2024-02-28T03:04:39;67.05;;;23.40;;
59418;SDS011;45224;50.904;6.038;2024-02-28T03:06:09;66.75;;;21.83;;
59418;SDS011;45224;50.904;6.038;2024-02-28T03:07:40;66.35;;;22.40;;
59418;SDS011;45224;50.904;6.038;2024-02-28T03:09:10;71.93;;;23.63;;
59418;SDS011;45224;50.904;6.038;2024-02-28T03:10:41;60.00;;;22.13;;
59418;SDS011;45224;50.904;6.038;2024-02-28T03:12:11;69.47;;;23.60;;
59418;SDS011;45224;50.904;6.038;2024-02-28T03:13:42;64.13;;;21.52;;
59418;SDS011;45224;50.904;6.038;2024-02-28T03:15:12;66.45;;;22.73;;
59418;SDS011;45224;50.904;6.038;2024-02-28T03:16:42;64.00;;;24.10;;
59418;SDS011;45224;50.904;6.038;2024-02-28T03:18:13;63.58;;;21.83;;
59418;SDS011;45224;50.904;6.038;2024-02-28T03:19:43;62.83;;;21.70;;
59418;SDS011;45224;50.904;6.038;2024-02-28T03:21:14;64.32;;;21.52;;
59418;SDS011;45224;50.904;6.038;2024-02-28T03:22:44;67.80;;;22.95;;
59418;SDS011;45224;50.904;6.038;2024-02-28T03:24:15;61.17;;;22.42;;
59418;SDS011;45224;50.904;6.038;2024-02-28T03:25:45;61.80;;;22.08;;
59418;SDS011;45224;50.904;6.038;2024-02-28T03:27:16;59.40;;;20.98;;
59418;SDS011;45224;50.904;6.038;2024-02-28T03:28:46;62.95;;;20.45;;
59418;SDS011;45224;50.904;6.038;2024-02-28T03:30:16;66.55;;;21.98;;
59418;SDS011;45224;50.904;6.038;2024-02-28T03:31:47;58.75;;;20.80;;
59418;SDS011;45224;50.904;6.038;2024-02-28T03:33:18;62.60;;;20.13;;
59418;SDS011;45224;50.904;6.038;2024-02-28T03:34:48;57.97;;;21.00;;
59418;SDS011;45224;50.904;6.038;2024-02-28T03:36:19;63.63;;;21.20;;
59418;SDS011;45224;50.904;6.038;2024-02-28T03:37:49;62.33;;;21.38;;
59418;SDS011;45224;50.904;6.038;2024-02-28T03:39:20;60.92;;;21.20;;
59418;SDS011;45224;50.904;6.038;2024-02-28T03:40:50;71.70;;;22.73;;
59418;SDS011;45224;50.904;6.038;2024-02-28T03:42:21;64.25;;;22.10;;
59418;SDS011;45224;50.904;6.038;2024-02-28T03:43:51;62.45;;;20.63;;
59418;SDS011;45224;50.904;6.038;2024-02-28T03:45:22;60.20;;;19.92;;
59418;SDS011;45224;50.904;6.038;2024-02-28T03:46:53;52.80;;;19.83;;
59418;SDS011;45224;50.904;6.038;2024-02-28T03:48:23;56.50;;;20.00;;
59418;SDS011;45224;50.904;6.038;2024-02-28T03:49:54;61.70;;;20.42;;
59418;SDS011;45224;50.904;6.038;2024-02-28T03:51:27;62.75;;;21.45;;
59418;SDS011;45224;50.904;6.038;2024-02-28T03:52:57;67.55;;;21.65;;
59418;SDS011;45224;50.904;6.038;2024-02-28T03:54:28;64.25;;;20.35;;
59418;SDS011;45224;50.904;6.038;2024-02-28T03:55:58;58.97;;;20.40;;
59418;SDS011;45224;50.904;6.038;2024-02-28T03:57:29;62.47;;;21.65;;
59418;SDS011;45224;50.904;6.038;2024-02-28T03:58:59;66.05;;;23.60;;
59418;SDS011;45224;50.904;6.038;2024-02-28T04:00:30;62.10;;;20.77;;
59418;SDS011;45224;50.904;6.038;2024-02-28T04:02:00;69.78;;;22.08;;
59418;SDS011;45224;50.904;6.038;2024-02-28T04:03:31;72.50;;;23.42;;
59418;SDS011;45224;50.904;6.038;2024-02-28T04:05:01;65.10;;;22.20;;
59418;SDS011;45224;50.904;6.038;2024-02-28T04:06:32;62.00;;;22.15;;
59418;SDS011;45224;50.904;6.038;2024-02-28T04:08:02;63.67;;;21.75;;
59418;SDS011;45224;50.904;6.038;2024-02-28T04:09:33;62.78;;;21.30;;
59418;SDS011;45224;50.904;6.038;2024-02-28T04:11:04;61.05;;;20.38;;
59418;SDS011;45224;50.904;6.038;2024-02-28T04:12:34;63.97;;;21.05;;
59418;SDS011;45224;50.904;6.038;2024-02-28T04:14:05;68.15;;;21.90;;
59418;SDS011;45224;50.904;6.038;2024-02-28T04:15:35;62.08;;;21.20;;
59418;SDS011;45224;50.904;6.038;2024-02-28T04:17:05;63.17;;;22.75;;
59418;SDS011;45224;50.904;6.038;2024-02-28T04:18:36;73.53;;;22.50;;
59418;SDS011;45224;50.904;6.038;2024-02-28T04:20:10;66.57;;;23.77;;
59418;SDS011;45224;50.904;6.038;2024-02-28T04:21:41;64.85;;;22.85;;
59418;SDS011;45224;50.904;6.038;2024-02-28T04:23:11;66.97;;;20.58;;
59418;SDS011;45224;50.904;6.038;2024-02-28T04:24:42;68.38;;;20.77;;
59418;SDS011;45224;50.904;6.038;2024-02-28T04:26:12;65.78;;;22.20;;
59418;SDS011;45224;50.904;6.038;2024-02-28T04:27:43;61.00;;;21.55;;
59418;SDS011;45224;50.904;6.038;2024-02-28T04:29:14;63.03;;;21.17;;
59418;SDS011;45224;50.904;6.038;2024-02-28T04:30:44;59.30;;;20.58;;
59418;SDS011;45224;50.904;6.038;2024-02-28T04:32:15;62.58;;;21.70;;
59418;SDS011;45224;50.904;6.038;2024-02-28T04:33:45;64.95;;;20.92;;
59418;SDS011;45224;50.904;6.038;2024-02-28T04:35:15;60.40;;;20.63;;
59418;SDS011;45224;50.904;6.038;2024-02-28T04:36:48;71.40;;;23.90;;
59418;SDS011;45224;50.904;6.038;2024-02-28T04:38:19;58.47;;;20.25;;
59418;SDS011;45224;50.904;6.038;2024-02-28T04:39:49;71.15;;;21.58;;
59418;SDS011;45224;50.904;6.038;2024-02-28T04:41:19;65.72;;;21.88;;
59418;SDS011;45224;50.904;6.038;2024-02-28T04:42:50;63.28;;;21.55;;
59418;SDS011;45224;50.904;6.038;2024-02-28T04:44:20;55.53;;;19.75;;
59418;SDS011;45224;50.904;6.038;2024-02-28T04:45:51;59.85;;;20.83;;
59418;SDS011;45224;50.904;6.038;2024-02-28T04:47:21;63.53;;;20.77;;
59418;SDS011;45224;50.904;6.038;2024-02-28T04:48:53;64.78;;;21.85;;
59418;SDS011;45224;50.904;6.038;2024-02-28T04:50:23;65.75;;;21.25;;
59418;SDS011;45224;50.904;6.038;2024-02-28T04:51:54;65.75;;;21.92;;
59418;SDS011;45224;50.904;6.038;2024-02-28T04:53:24;65.03;;;20.70;;
59418;SDS011;45224;50.904;6.038;2024-02-28T04:54:55;54.15;;;19.75;;
59418;SDS011;45224;50.904;6.038;2024-02-28T04:56:25;57.08;;;20.17;;
59418;SDS011;45224;50.904;6.038;2024-02-28T04:57:56;55.28;;;19.75;;
59418;SDS011;45224;50.904;6.038;2024-02-28T04:59:26;63.72;;;21.65;;
59418;SDS011;45224;50.904;6.038;2024-02-28T05:00:57;65.75;;;21.77;;
59418;SDS011;45224;50.904;6.038;2024-02-28T05:02:27;62.70;;;21.40;;
59418;SDS011;45224;50.904;6.038;2024-02-28T05:03:58;70.13;;;21.48;;
59418;SDS011;45224;50.904;6.038;2024-02-28T05:05:28;63.75;;;21.48;;
59418;SDS011;45224;50.904;6.038;2024-02-28T05:06:58;57.60;;;19.25;;
59418;SDS011;45224;50.904;6.038;2024-02-28T05:08:29;57.28;;;20.40;;
59418;SDS011;45224;50.904;6.038;2024-02-28T05:09:59;66.97;;;19.38;;
59418;SDS011;45224;50.904;6.038;2024-02-28T05:11:30;64.28;;;21.45;;
59418;SDS011;45224;50.904;6.038;2024-02-28T05:13:00;50.63;;;18.63;;
59418;SDS011;45224;50.904;6.038;2024-02-28T05:14:33;57.25;;;20.08;;
59418;SDS011;45224;50.904;6.038;2024-02-28T05:16:03;59.38;;;19.90;;
59418;SDS011;45224;50.904;6.038;2024-02-28T05:17:34;58.63;;;21.08;;
59418;SDS011;45224;50.904;6.038;2024-02-28T05:19:04;59.03;;;21.42;;
59418;SDS011;45224;50.904;6.038;2024-02-28T05:20:35;59.95;;;20.05;;
59418;SDS011;45224;50.904;6.038;2024-02-28T05:22:05;67.25;;;21.20;;
59418;SDS011;45224;50.904;6.038;2024-02-28T05:23:35;57.25;;;20.63;;
59418;SDS011;45224;50.904;6.038;2024-02-28T05:25:06;64.38;;;19.85;;
59418;SDS011;45224;50.904;6.038;2024-02-28T05:26:37;63.65;;;20.10;;
59418;SDS011;45224;50.904;6.038;2024-02-28T05:28:08;58.25;;;20.75;;
59418;SDS011;45224;50.904;6.038;2024-02-28T05:29:38;58.00;;;19.35;;
59418;SDS011;45224;50.904;6.038;2024-02-28T05:31:23;60.65;;;19.73;;
59418;SDS011;45224;50.904;6.038;2024-02-28T05:32:55;56.15;;;20.02;;
59418;SDS011;45224;50.904;6.038;2024-02-28T05:34:25;62.00;;;19.08;;
59418;SDS011;45224;50.904;6.038;2024-02-28T05:35:56;53.80;;;19.00;;
59418;SDS011;45224;50.904;6.038;2024-02-28T05:37:26;56.40;;;19.35;;
59418;SDS011;45224;50.904;6.038;2024-02-28T05:38:57;59.05;;;19.30;;
59418;SDS011;45224;50.904;6.038;2024-02-28T05:40:29;61.80;;;20.40;;
59418;SDS011;45224;50.904;6.038;2024-02-28T05:42:00;60.00;;;20.05;;
59418;SDS011;45224;50.904;6.038;2024-02-28T05:43:30;54.78;;;20.42;;
59418;SDS011;45224;50.904;6.038;2024-02-28T05:45:01;59.42;;;20.77;;
59418;SDS011;45224;50.904;6.038;2024-02-28T05:46:31;53.60;;;19.52;;
59418;SDS011;45224;50.904;6.038;2024-02-28T05:48:02;60.22;;;19.45;;
59418;SDS011;45224;50.904;6.038;2024-02-28T05:49:32;55.78;;;19.88;;
59418;SDS011;45224;50.904;6.038;2024-02-28T05:51:03;60.05;;;20.52;;
59418;SDS011;45224;50.904;6.038;2024-02-28T05:52:34;62.05;;;20.83;;
59418;SDS011;45224;50.904;6.038;2024-02-28T05:54:04;57.17;;;19.50;;
59418;SDS011;45224;50.904;6.038;2024-02-28T05:55:35;53.40;;;19.88;;
59418;SDS011;45224;50.904;6.038;2024-02-28T05:57:05;58.85;;;20.65;;
59418;SDS011;45224;50.904;6.038;2024-02-28T05:58:35;57.67;;;20.60;;
59418;SDS011;45224;50.904;6.038;2024-02-28T06:00:06;54.38;;;19.25;;
59418;SDS011;45224;50.904;6.038;2024-02-28T06:01:41;65.50;;;20.15;;
59418;SDS011;45224;50.904;6.038;2024-02-28T06:03:12;61.90;;;20.92;;
59418;SDS011;45224;50.904;6.038;2024-02-28T06:04:42;64.13;;;20.30;;
59418;SDS011;45224;50.904;6.038;2024-02-28T06:06:12;59.80;;;19.50;;
59418;SDS011;45224;50.904;6.038;2024-02-28T06:07:43;60.47;;;19.88;;
59418;SDS011;45224;50.904;6.038;2024-02-28T06:09:13;61.58;;;21.00;;
59418;SDS011;45224;50.904;6.038;2024-02-28T06:10:44;55.70;;;19.63;;
59418;SDS011;45224;50.904;6.038;2024-02-28T06:12:16;59.20;;;19.67;;
59418;SDS011;45224;50.904;6.038;2024-02-28T06:13:47;60.35;;;20.13;;
59418;SDS011;45224;50.904;6.038;2024-02-28T06:15:20;55.38;;;19.45;;
59418;SDS011;45224;50.904;6.038;2024-02-28T06:16:50;57.78;;;18.50;;
59418;SDS011;45224;50.904;6.038;2024-02-28T06:18:21;54.72;;;19.10;;
59418;SDS011;45224;50.904;6.038;2024-02-28T06:19:53;64.78;;;20.92;;
59418;SDS011;45224;50.904;6.038;2024-02-28T06:21:23;57.88;;;18.60;;
59418;SDS011;45224;50.904;6.038;2024-02-28T06:22:53;58.60;;;19.58;;
59418;SDS011;45224;50.904;6.038;2024-02-28T06:24:24;58.30;;;19.13;;
59418;SDS011;45224;50.904;6.038;2024-02-28T06:25:55;53.55;;;19.98;;
59418;SDS011;45224;50.904;6.038;2024-02-28T06:27:25;58.88;;;20.05;;
59418;SDS011;45224;50.904;6.038;2024-02-28T06:28:57;57.15;;;19.27;;
59418;SDS011;45224;50.904;6.038;2024-02-28T06:30:31;60.00;;;18.73;;
59418;SDS011;45224;50.904;6.038;2024-02-28T06:32:02;49.72;;;17.50;;
59418;SDS011;45224;50.904;6.038;2024-02-28T06:33:33;49.05;;;16.92;;
59418;SDS011;45224;50.904;6.038;2024-02-28T06:35:03;46.05;;;16.00;;
59418;SDS011;45224;50.904;6.038;2024-02-28T06:36:34;53.17;;;18.63;;
59418;SDS011;45224;50.904;6.038;2024-02-28T06:38:05;49.42;;;17.88;;
59418;SDS011;45224;50.904;6.038;2024-02-28T06:39:35;47.47;;;17.00;;
59418;SDS011;45224;50.904;6.038;2024-02-28T06:41:06;50.20;;;17.90;;
59418;SDS011;45224;50.904;6.038;2024-02-28T06:42:36;53.15;;;18.70;;
59418;SDS011;45224;50.904;6.038;2024-02-28T06:44:06;45.92;;;16.27;;
59418;SDS011;45224;50.904;6.038;2024-02-28T06:45:37;46.88;;;16.80;;
59418;SDS011;45224;50.904;6.038;2024-02-28T06:47:08;48.15;;;15.80;;
59418;SDS011;45224;50.904;6.038;2024-02-28T06:48:39;43.55;;;15.82;;
59418;SDS011;45224;50.904;6.038;2024-02-28T06:50:09;48.17;;;16.35;;
59418;SDS011;45224;50.904;6.038;2024-02-28T06:51:40;46.40;;;16.42;;
59418;SDS011;45224;50.904;6.038;2024-02-28T06:53:10;44.72;;;15.68;;
59418;SDS011;45224;50.904;6.038;2024-02-28T06:54:41;47.88;;;15.38;;
59418;SDS011;45224;50.904;6.038;2024-02-28T06:56:11;43.22;;;16.33;;
59418;SDS011;45224;50.904;6.038;2024-02-28T06:57:42;43.97;;;15.95;;
59418;SDS011;45224;50.904;6.038;2024-02-28T06:59:12;50.25;;;16.90;;
59418;SDS011;45224;50.904;6.038;2024-02-28T07:00:43;44.13;;;17.20;;
59418;SDS011;45224;50.904;6.038;2024-02-28T07:02:13;48.80;;;16.63;;
59418;SDS011;45224;50.904;6.038;2024-02-28T07:03:44;43.63;;;16.33;;
59418;SDS011;45224;50.904;6.038;2024-02-28T07:05:14;45.08;;;16.10;;
59418;SDS011;45224;50.904;6.038;2024-02-28T07:06:45;47.90;;;17.45;;
59418;SDS011;45224;50.904;6.038;2024-02-28T07:08:15;46.67;;;16.42;;
59418;SDS011;45224;50.904;6.038;2024-02-28T07:09:46;44.67;;;15.93;;
59418;SDS011;45224;50.904;6.038;2024-02-28T07:11:16;44.38;;;15.50;;
59418;SDS011;45224;50.904;6.038;2024-02-28T07:12:47;46.95;;;16.98;;
59418;SDS011;45224;50.904;6.038;2024-02-28T07:14:17;43.58;;;15.48;;
59418;SDS011;45224;50.904;6.038;2024-02-28T07:15:47;50.63;;;17.85;;
59418;SDS011;45224;50.904;6.038;2024-02-28T07:17:19;52.75;;;17.58;;
59418;SDS011;45224;50.904;6.038;2024-02-28T07:18:49;52.78;;;18.67;;
59418;SDS011;45224;50.904;6.038;2024-02-28T07:20:19;53.55;;;17.88;;
59418;SDS011;45224;50.904;6.038;2024-02-28T07:21:50;45.83;;;16.23;;
59418;SDS011;45224;50.904;6.038;2024-02-28T07:23:20;52.08;;;18.02;;
59418;SDS011;45224;50.904;6.038;2024-02-28T07:24:51;48.25;;;18.95;;
59418;SDS011;45224;50.904;6.038;2024-02-28T07:26:21;51.83;;;17.98;;
59418;SDS011;45224;50.904;6.038;2024-02-28T07:27:52;47.97;;;16.67;;
59418;SDS011;45224;50.904;6.038;2024-02-28T07:29:22;49.08;;;16.65;;
59418;SDS011;45224;50.904;6.038;2024-02-28T07:30:53;51.78;;;17.05;;
59418;SDS011;45224;50.904;6.038;2024-02-28T07:32:23;53.13;;;17.58;;
59418;SDS011;45224;50.904;6.038;2024-02-28T07:33:54;48.83;;;16.65;;
59418;SDS011;45224;50.904;6.038;2024-02-28T07:35:24;47.08;;;16.58;;
59418;SDS011;45224;50.904;6.038;2024-02-28T07:36:55;48.78;;;18.02;;
59418;SDS011;45224;50.904;6.038;2024-02-28T07:38:25;46.95;;;16.75;;
59418;SDS011;45224;50.904;6.038;2024-02-28T07:39:57;47.42;;;16.25;;
59418;SDS011;45224;50.904;6.038;2024-02-28T07:41:28;42.20;;;15.65;;
59418;SDS011;45224;50.904;6.038;2024-02-28T07:42:58;43.70;;;15.85;;
59418;SDS011;45224;50.904;6.038;2024-02-28T07:44:29;49.00;;;16.23;;
59418;SDS011;45224;50.904;6.038;2024-02-28T07:46:00;48.63;;;16.83;;
59418;SDS011;45224;50.904;6.038;2024-02-28T07:47:31;44.67;;;14.98;;
59418;SDS011;45224;50.904;6.038;2024-02-28T07:49:01;44.60;;;15.07;;
59418;SDS011;45224;50.904;6.038;2024-02-28T07:50:32;44.03;;;15.82;;
59418;SDS011;45224;50.904;6.038;2024-02-28T07:52:02;39.85;;;13.77;;
59418;SDS011;45224;50.904;6.038;2024-02-28T07:53:33;41.65;;;14.20;;
59418;SDS011;45224;50.904;6.038;2024-02-28T07:55:04;41.60;;;14.73;;
59418;SDS011;45224;50.904;6.038;2024-02-28T07:56:35;40.33;;;13.93;;
59418;SDS011;45224;50.904;6.038;2024-02-28T07:58:05;43.22;;;14.85;;
59418;SDS011;45224;50.904;6.038;2024-02-28T07:59:39;43.33;;;14.90;;
59418;SDS011;45224;50.904;6.038;2024-02-28T08:01:10;42.03;;;13.77;;
59418;SDS011;45224;50.904;6.038;2024-02-28T08:02:41;37.53;;;13.20;;
59418;SDS011;45224;50.904;6.038;2024-02-28T08:04:11;39.47;;;13.73;;
59418;SDS011;45224;50.904;6.038;2024-02-28T08:05:42;41.70;;;12.77;;
59418;SDS011;45224;50.904;6.038;2024-02-28T08:07:14;36.60;;;14.15;;
59418;SDS011;45224;50.904;6.038;2024-02-28T08:08:45;43.13;;;13.77;;
59418;SDS011;45224;50.904;6.038;2024-02-28T08:10:16;39.92;;;13.60;;
59418;SDS011;45224;50.904;6.038;2024-02-28T08:11:47;37.83;;;14.18;;
59418;SDS011;45224;50.904;6.038;2024-02-28T08:13:17;35.22;;;13.20;;
59418;SDS011;45224;50.904;6.038;2024-02-28T08:14:48;36.33;;;13.02;;
59418;SDS011;45224;50.904;6.038;2024-02-28T08:16:18;40.45;;;14.70;;
59418;SDS011;45224;50.904;6.038;2024-02-28T08:17:48;36.67;;;13.43;;
59418;SDS011;45224;50.904;6.038;2024-02-28T08:19:19;34.67;;;13.77;;
59418;SDS011;45224;50.904;6.038;2024-02-28T08:20:49;37.17;;;12.63;;
59418;SDS011;45224;50.904;6.038;2024-02-28T08:23:55;34.22;;;13.45;;
59418;SDS011;45224;50.904;6.038;2024-02-28T08:25:25;31.23;;;12.70;;
59418;SDS011;45224;50.904;6.038;2024-02-28T08:26:55;32.13;;;11.70;;
59418;SDS011;45224;50.904;6.038;2024-02-28T08:28:26;33.25;;;13.07;;
59418;SDS011;45224;50.904;6.038;2024-02-28T08:29:56;33.22;;;13.20;;
59418;SDS011;45224;50.904;6.038;2024-02-28T08:31:27;33.33;;;12.40;;
59418;SDS011;45224;50.904;6.038;2024-02-28T08:32:58;30.15;;;12.18;;
59418;SDS011;45224;50.904;6.038;2024-02-28T08:34:28;30.60;;;13.13;;
59418;SDS011;45224;50.904;6.038;2024-02-28T08:35:59;32.05;;;12.90;;
59418;SDS011;45224;50.904;6.038;2024-02-28T08:37:29;27.42;;;11.20;;
59418;SDS011;45224;50.904;6.038;2024-02-28T08:39:00;28.65;;;12.02;;
59418;SDS011;45224;50.904;6.038;2024-02-28T08:40:30;28.25;;;12.32;;
59418;SDS011;45224;50.904;6.038;2024-02-28T08:42:00;29.10;;;12.40;;
59418;SDS011;45224;50.904;6.038;2024-02-28T08:43:31;29.00;;;12.20;;
59418;SDS011;45224;50.904;6.038;2024-02-28T08:45:01;26.90;;;12.00;;
59418;SDS011;45224;50.904;6.038;2024-02-28T08:46:33;25.73;;;11.55;;
59418;SDS011;45224;50.904;6.038;2024-02-28T08:48:04;27.05;;;11.70;;
59418;SDS011;45224;50.904;6.038;2024-02-28T08:49:35;29.48;;;11.88;;
59418;SDS011;45224;50.904;6.038;2024-02-28T08:51:06;26.60;;;12.45;;